Time;durP1;ratioP1;P1;durP2;ratioP2;P2;SDS_P1;SDS_P2;PMS_P1;PMS_P2;Temp;Humidity;BMP_temperature;BMP_pressure;BME280_temperature;BME280_humidity;BME280_pressure;Samples;Min_cycle;Max_cycle;Signal;HPM_P1;HPM_P2
2021/04/10 00:00:30;;;;;;;10.35;4.93;;;;;;;7.13;68.93;96139.09;5026968;28;20084;-48
2021/04/10 00:02:58;;;;;;;6.93;4.70;;;;;;;7.13;68.78;96151.38;5038030;28;20473;-54
2021/04/10 00:05:27;;;;;;;6.35;4.78;;;;;;;7.16;69.42;96138.00;5030072;28;20467;-49
2021/04/10 00:07:55;;;;;;;6.05;4.78;;;;;;;7.23;71.43;96135.69;5027347;28;20073;-49
2021/04/10 00:10:26;;;;;;;5.20;4.70;;;;;;;7.13;72.60;96136.47;5030450;28;20723;-49
2021/04/10 00:12:53;;;;;;;8.20;5.00;;;;;;;7.04;74.23;96131.16;5029230;28;20550;-50
2021/04/10 00:15:21;;;;;;;7.65;4.78;;;;;;;7.04;71.29;96131.16;5029914;28;20117;-50
2021/04/10 00:17:48;;;;;;;7.32;4.65;;;;;;;6.86;72.00;96125.72;5034557;28;20061;-47
2021/04/10 00:20:17;;;;;;;5.93;4.40;;;;;;;6.89;72.37;96122.81;5032285;28;20123;-52
2021/04/10 00:22:46;;;;;;;13.23;4.60;;;;;;;6.78;73.54;96125.50;5029665;28;20065;-51
2021/04/10 00:25:15;;;;;;;7.18;4.60;;;;;;;6.77;72.78;96123.84;5033567;28;20069;-53
2021/04/10 00:27:42;;;;;;;7.55;4.43;;;;;;;6.59;74.56;96119.19;5028929;28;20073;-54
2021/04/10 00:30:12;;;;;;;5.93;4.22;;;;;;;6.69;73.49;96115.81;5029969;28;20092;-56
2021/04/10 00:32:39;;;;;;;5.18;3.90;;;;;;;6.65;72.27;96120.47;5024152;28;20460;-57
2021/04/10 00:35:08;;;;;;;5.20;4.18;;;;;;;6.63;72.85;96117.97;5023120;28;20065;-51
2021/04/10 00:37:36;;;;;;;8.43;4.20;;;;;;;6.69;73.91;96121.88;5030453;28;20083;-56
2021/04/10 00:40:04;;;;;;;6.68;4.28;;;;;;;6.58;74.25;96117.56;5031648;28;20084;-51
2021/04/10 00:42:32;;;;;;;6.50;4.18;;;;;;;6.42;77.71;96120.59;5029219;28;20077;-52
2021/04/10 00:45:00;;;;;;;6.53;4.47;;;;;;;6.22;80.89;96118.78;5031527;28;20095;-54
2021/04/10 00:47:27;;;;;;;5.78;4.72;;;;;;;6.31;80.42;96104.13;5028245;28;20065;-57
2021/04/10 00:49:55;;;;;;;6.63;4.18;;;;;;;6.35;77.69;96110.78;5028691;28;20069;-49
2021/04/10 00:52:23;;;;;;;6.57;4.22;;;;;;;6.41;75.31;96105.03;5020914;28;20068;-51
2021/04/10 00:54:51;;;;;;;5.72;4.53;;;;;;;6.52;74.22;96096.28;5038332;28;20739;-51
2021/04/10 00:57:19;;;;;;;5.78;4.10;;;;;;;6.54;73.70;96102.22;5026393;28;20096;-53
2021/04/10 00:59:48;;;;;;;6.85;4.30;;;;;;;6.55;74.95;96098.63;5033074;28;20068;-54
2021/04/10 01:02:15;;;;;;;5.15;4.30;;;;;;;6.49;78.32;96101.75;5031598;28;20545;-55
2021/04/10 01:04:43;;;;;;;7.30;3.83;;;;;;;6.38;76.75;96093.00;5027821;28;20068;-53
2021/04/10 01:07:11;;;;;;;6.35;4.55;;;;;;;6.23;82.06;96104.78;5028242;28;20530;-54
2021/04/10 01:09:38;;;;;;;6.05;4.28;;;;;;;6.23;80.41;96104.78;5036739;28;20092;-55
2021/04/10 01:12:19;;;;;;;6.97;3.95;;;;;;;6.25;80.82;96102.84;5024146;28;20406;-54
2021/04/10 01:14:56;;;;;;;8.82;4.40;;;;;;;6.38;79.81;96106.09;5022830;28;20061;-53
2021/04/10 01:17:27;;;;;;;5.90;4.45;;;;;;;6.15;81.55;96100.13;5028389;28;20063;-56
2021/04/10 01:20:40;;;;;;;6.05;4.57;;;;;;;6.17;82.33;96098.25;5030263;28;20071;-52
2021/04/10 01:23:37;;;;;;;4.70;4.30;;;;;;;6.03;85.79;96090.69;4991679;28;20061;-55
2021/04/10 01:26:23;;;;;;;6.53;4.28;;;;;;;6.10;83.79;96094.47;5029420;28;20069;-54
2021/04/10 01:28:53;;;;;;;8.27;4.30;;;;;;;6.09;85.75;96102.44;5036684;28;20099;-52
2021/04/10 01:31:23;;;;;;;5.63;4.10;;;;;;;6.11;83.09;96097.91;5027941;28;20073;-54
2021/04/10 01:33:54;;;;;;;7.05;4.50;;;;;;;6.23;82.86;96103.91;5030137;28;20550;-56
2021/04/10 01:36:26;;;;;;;6.15;4.70;;;;;;;6.04;85.22;96115.06;5040799;28;20095;-54
2021/04/10 01:38:54;;;;;;;5.95;4.35;;;;;;;6.04;85.31;96102.00;5028637;28;20079;-53
2021/04/10 01:41:22;;;;;;;5.10;4.18;;;;;;;6.08;83.92;96112.06;5036524;28;20080;-54
2021/04/10 01:43:52;;;;;;;5.78;4.55;;;;;;;5.99;85.37;96110.22;5035707;28;20083;-49
2021/04/10 01:46:20;;;;;;;9.52;4.95;;;;;;;5.94;86.25;96110.59;5028418;28;20069;-52
2021/04/10 01:48:47;;;;;;;5.82;4.28;;;;;;;5.87;86.64;96105.94;5031879;28;20096;-49
2021/04/10 01:51:15;;;;;;;6.07;4.63;;;;;;;5.61;88.96;96111.50;5026585;28;20096;-52
2021/04/10 01:53:43;;;;;;;6.88;4.47;;;;;;;5.80;87.62;96116.06;5027937;28;20562;-52
2021/04/10 01:56:12;;;;;;;10.48;4.70;;;;;;;5.61;92.88;96115.88;5039778;28;20464;-51
2021/04/10 01:58:43;;;;;;;5.35;4.50;;;;;;;5.70;91.06;96110.75;5033107;28;20523;-53
2021/04/10 02:01:13;;;;;;;9.18;4.90;;;;;;;5.55;93.18;96119.00;5027091;28;20433;-53
2021/04/10 02:03:42;;;;;;;7.00;4.38;;;;;;;5.74;90.67;96119.19;5029167;28;20083;-51
2021/04/10 02:06:10;;;;;;;9.33;4.47;;;;;;;5.72;91.68;96121.09;5028505;28;20440;-54
2021/04/10 02:08:39;;;;;;;8.00;5.05;;;;;;;5.58;94.90;96127.44;5028077;28;20087;-55
2021/04/10 02:11:07;;;;;;;5.18;4.35;;;;;;;5.82;88.57;96116.78;5034845;28;20070;-56
2021/04/10 02:13:35;;;;;;;6.13;4.60;;;;;;;5.70;90.18;96115.97;5032677;28;20515;-54
2021/04/10 02:16:03;;;;;;;7.43;4.88;;;;;;;5.65;89.29;96115.53;5024320;28;20045;-57
2021/04/10 02:18:32;;;;;;;9.05;5.35;;;;;;;5.77;88.67;96115.50;5039416;28;20081;-52
2021/04/10 02:21:00;;;;;;;6.68;4.57;;;;;;;5.64;92.19;96119.09;5028473;28;20106;-51
2021/04/10 02:23:28;;;;;;;6.68;4.45;;;;;;;5.85;88.29;96113.94;5030398;28;20073;-49
2021/04/10 02:25:55;;;;;;;6.97;4.70;;;;;;;5.88;84.95;96115.44;5034511;28;20477;-52
2021/04/10 02:28:23;;;;;;;9.07;4.70;;;;;;;6.01;84.16;96113.53;5035192;28;20057;-55
2021/04/10 02:30:50;;;;;;;6.95;4.53;;;;;;;5.85;88.54;96113.94;5024657;28;20085;-48
2021/04/10 02:33:23;;;;;;;6.47;4.30;;;;;;;5.86;88.98;96117.38;5039253;28;20077;-53
2021/04/10 02:35:53;;;;;;;7.40;4.10;;;;;;;5.79;88.52;96114.44;5029459;28;20585;-48
2021/04/10 02:38:21;;;;;;;7.03;4.18;;;;;;;6.09;86.14;96108.53;5030591;28;20065;-52
2021/04/10 02:40:50;;;;;;;5.40;4.15;;;;;;;6.08;86.07;96114.69;5020296;28;20065;-51
2021/04/10 02:43:20;;;;;;;5.95;4.32;;;;;;;6.18;83.67;96107.75;5033921;28;20068;-54
2021/04/10 02:45:48;;;;;;;6.60;4.43;;;;;;;6.29;83.86;96114.72;5031254;28;20088;-51
2021/04/10 02:48:21;;;;;;;7.00;4.05;;;;;;;6.24;84.30;96111.66;5041413;28;20099;-54
2021/04/10 02:50:49;;;;;;;5.50;4.20;;;;;;;6.30;86.55;96107.72;5026324;28;20067;-48
2021/04/10 02:53:18;;;;;;;9.25;4.75;;;;;;;6.36;87.17;96112.41;5028274;28;20639;-52
2021/04/10 02:55:46;;;;;;;5.47;4.53;;;;;;;6.13;93.76;96109.94;5031736;28;20081;-49
2021/04/10 02:58:15;;;;;;;6.07;4.30;;;;;;;6.46;88.44;96096.78;5033315;28;20064;-50
2021/04/10 03:00:44;;;;;;;5.10;4.18;;;;;;;6.51;83.71;96095.44;5029878;28;20080;-47
2021/04/10 03:03:12;;;;;;;7.35;4.18;;;;;;;6.62;80.73;96089.31;5041500;28;20080;-49
2021/04/10 03:05:42;;;;;;;5.18;4.45;;;;;;;6.74;82.45;96082.19;5018516;28;20085;-51
2021/04/10 03:08:10;;;;;;;9.45;4.10;;;;;;;6.72;79.05;96084.94;5023412;28;20061;-51
2021/04/10 03:10:39;;;;;;;7.55;4.50;;;;;;;6.77;80.05;96080.13;5035133;28;20087;-48
2021/04/10 03:13:06;;;;;;;5.53;4.28;;;;;;;6.85;79.79;96087.38;5032798;28;20056;-50
2021/04/10 03:15:34;;;;;;;5.32;4.40;;;;;;;6.96;78.98;96083.81;5035484;28;20519;-51
2021/04/10 03:18:05;;;;;;;5.30;4.43;;;;;;;7.06;76.81;96089.94;5037657;28;20428;-49
2021/04/10 03:20:32;;;;;;;7.28;4.60;;;;;;;7.03;78.58;96088.41;5025259;28;20088;-49
2021/04/10 03:23:00;;;;;;;6.35;4.10;;;;;;;7.18;77.28;96093.28;5031014;28;20069;-50
2021/04/10 03:25:27;;;;;;;7.68;4.40;;;;;;;7.36;75.92;96089.03;5036691;28;20057;-49
2021/04/10 03:27:56;;;;;;;4.57;3.90;;;;;;;7.47;75.49;96096.00;5017667;28;20093;-51
2021/04/10 03:30:24;;;;;;;7.88;4.15;;;;;;;7.57;76.16;96092.44;5033227;28;20118;-52
2021/04/10 03:32:51;;;;;;;6.10;4.72;;;;;;;7.41;80.84;96092.13;5030745;28;20068;-51
2021/04/10 03:35:20;;;;;;;6.85;4.03;;;;;;;7.41;81.23;96092.13;5024120;28;20073;-49
2021/04/10 03:37:49;;;;;;;4.70;3.95;;;;;;;7.15;84.43;96089.13;5030735;28;20119;-50
2021/04/10 03:40:16;;;;;;;4.38;3.97;;;;;;;7.36;84.13;96099.53;5033587;28;20060;-48
2021/04/10 03:42:45;;;;;;;6.88;4.40;;;;;;;7.34;84.60;96097.06;5022342;28;20088;-53
2021/04/10 03:45:14;;;;;;;6.32;4.78;;;;;;;7.30;85.07;96098.31;5037514;28;20136;-53
2021/04/10 03:47:53;;;;;;;;;;;;;;;7.70;80.98;96096.59;5034605;28;20076;-50
2021/04/10 03:50:22;;;;;;;6.47;4.30;;;;;;;7.72;81.11;96100.75;5026869;28;19948;-50
2021/04/10 03:52:50;;;;;;;5.47;4.10;;;;;;;7.86;77.43;96094.25;5026573;28;20075;-47
2021/04/10 03:55:17;;;;;;;6.07;4.28;;;;;;;7.92;76.32;96098.97;5032944;28;20060;-49
2021/04/10 03:57:45;;;;;;;5.05;4.38;;;;;;;7.98;76.16;96100.19;5024384;28;20085;-50
2021/04/10 04:00:15;;;;;;;7.93;4.28;;;;;;;7.98;78.91;96102.81;5037752;28;20077;-50
2021/04/10 04:02:42;;;;;;;6.43;4.57;;;;;;;8.03;77.55;96104.09;5033239;28;20076;-52
2021/04/10 04:05:10;;;;;;;6.07;4.70;;;;;;;7.97;78.28;96101.19;5020887;28;20076;-55
2021/04/10 04:07:38;;;;;;;5.10;4.30;;;;;;;7.52;85.27;96110.38;5039363;28;20069;-51
2021/04/10 04:10:07;;;;;;;7.20;4.53;;;;;;;7.60;82.83;96107.91;5031243;28;20479;-50
2021/04/10 04:12:34;;;;;;;5.47;4.53;;;;;;;7.43;85.05;96110.34;5031669;28;20087;-52
2021/04/10 04:15:03;;;;;;;6.40;4.45;;;;;;;7.32;85.86;96113.88;5033619;28;20632;-53
2021/04/10 04:17:31;;;;;;;4.78;3.97;;;;;;;7.34;87.27;96120.66;5018685;28;20073;-49
2021/04/10 04:19:59;;;;;;;7.70;4.60;;;;;;;7.30;90.16;96119.28;5026056;28;20065;-54
2021/04/10 04:22:26;;;;;;;5.25;4.50;;;;;;;7.32;89.31;96125.22;5040760;28;20069;-50
2021/04/10 04:24:53;;;;;;;8.13;4.63;;;;;;;7.41;84.70;96117.53;5027101;28;20551;-55
2021/04/10 04:27:21;;;;;;;4.82;4.32;;;;;;;7.44;88.62;96125.13;5033096;28;20484;-50
2021/04/10 04:29:48;;;;;;;7.80;4.35;;;;;;;7.44;85.14;96118.09;5027538;28;20072;-51
2021/04/10 04:32:15;;;;;;;5.85;4.60;;;;;;;7.45;90.03;96124.16;5016167;28;20069;-53
2021/04/10 04:34:48;;;;;;;5.95;4.28;;;;;;;7.33;93.14;96121.66;5028210;28;20076;-49
2021/04/10 04:37:16;;;;;;;5.68;4.47;;;;;;;7.16;96.06;96122.28;5040956;28;20064;-54
2021/04/10 04:39:43;;;;;;;6.22;4.13;;;;;;;7.23;92.65;96114.69;5025119;28;20084;-50
2021/04/10 04:42:11;;;;;;;7.10;4.45;;;;;;;7.02;95.03;96119.97;5035780;28;20084;-48
2021/04/10 04:44:38;;;;;;;6.63;4.38;;;;;;;7.36;87.98;96125.78;5026925;28;20068;-51
2021/04/10 04:47:06;;;;;;;6.32;4.13;;;;;;;6.92;88.98;96125.19;5022579;28;20135;-53
2021/04/10 04:49:34;;;;;;;6.20;4.60;;;;;;;6.96;93.76;96128.38;5032585;28;20091;-49
2021/04/10 04:52:02;;;;;;;6.72;4.55;;;;;;;7.14;93.19;96124.19;5027746;28;20084;-52
2021/04/10 04:54:30;;;;;;;6.50;4.63;;;;;;;7.05;96.33;96133.66;5028184;28;20081;-51
2021/04/10 04:56:58;;;;;;;5.47;4.68;;;;;;;7.48;90.54;96129.97;5032637;28;20449;-54
2021/04/10 04:59:25;;;;;;;5.72;4.45;;;;;;;7.64;87.52;96136.47;5037586;28;20087;-54
2021/04/10 05:01:52;;;;;;;10.45;5.00;;;;;;;7.87;86.44;96140.53;5022519;28;20061;-50
2021/04/10 05:04:20;;;;;;;7.10;4.90;;;;;;;7.96;91.18;96145.00;5024689;28;20070;-48
2021/04/10 05:06:48;;;;;;;6.65;4.22;;;;;;;7.69;99.88;96143.00;5039803;28;20088;-51
2021/04/10 05:09:16;;;;;;;4.68;4.00;;;;;;;7.87;100.00;96145.78;5030908;28;20091;-50
2021/04/10 05:11:43;;;;;;;7.18;4.50;;;;;;;7.84;100.00;96146.91;5032634;28;20088;-52
2021/04/10 05:14:11;;;;;;;6.35;4.85;;;;;;;7.86;100.00;96165.16;5025608;28;20064;-50
2021/04/10 05:16:38;;;;;;;6.65;4.68;;;;;;;8.00;100.00;96153.41;5020009;28;20738;-48
2021/04/10 05:19:06;;;;;;;6.07;4.43;;;;;;;8.02;100.00;96162.00;5033224;28;20094;-50
2021/04/10 05:21:33;;;;;;;8.27;4.43;;;;;;;8.43;93.16;96157.47;5029692;28;20095;-54
2021/04/10 05:24:00;;;;;;;9.27;4.35;;;;;;;8.77;84.23;96152.59;5027565;28;20061;-53
2021/04/10 05:26:28;;;;;;;8.02;4.35;;;;;;;8.93;80.76;96149.41;5039237;28;20550;-50
2021/04/10 05:28:56;;;;;;;6.50;4.30;;;;;;;8.79;84.43;96148.03;5031486;28;20076;-51
2021/04/10 05:31:23;;;;;;;6.15;4.35;;;;;;;9.16;84.79;96153.34;5023094;28;20065;-52
2021/04/10 05:33:51;;;;;;;8.10;4.50;;;;;;;9.47;80.93;96153.09;5032629;28;20080;-52
2021/04/10 05:36:18;;;;;;;14.18;4.70;;;;;;;9.57;77.87;96151.25;5019497;28;20093;-55
2021/04/10 05:38:46;;;;;;;7.07;4.20;;;;;;;9.90;70.53;96149.81;5029457;28;20068;-48
2021/04/10 05:41:13;;;;;;;8.80;4.60;;;;;;;10.22;65.58;96149.34;5038302;28;20072;-52
2021/04/10 05:43:41;;;;;;;7.40;5.10;;;;;;;10.67;63.42;96148.44;5021562;28;20075;-54
2021/04/10 05:46:09;;;;;;;42.05;10.15;;;;;;;10.76;64.02;96141.41;5034248;28;20451;-55
2021/04/10 05:48:37;;;;;;;22.88;8.18;;;;;;;10.55;65.51;96152.28;5033464;28;20081;-49
2021/04/10 05:51:04;;;;;;;14.25;6.00;;;;;;;10.92;66.71;96141.53;5024200;28;20087;-55
2021/04/10 05:53:33;;;;;;;15.07;5.60;;;;;;;10.96;68.96;96146.50;5031884;28;20068;-49
2021/04/10 05:56:00;;;;;;;16.27;5.97;;;;;;;11.02;69.61;96149.34;5030749;28;20072;-50
2021/04/10 05:58:28;;;;;;;11.25;4.95;;;;;;;11.36;66.26;96157.31;5024321;28;20075;-48
2021/04/10 06:00:57;;;;;;;7.68;4.43;;;;;;;11.71;63.19;96152.84;5035029;28;20069;-51
2021/04/10 06:03:24;;;;;;;9.63;4.45;;;;;;;11.66;60.82;96149.84;5028800;28;20087;-49
2021/04/10 06:05:51;;;;;;;7.00;4.00;;;;;;;11.36;61.52;96159.97;5020243;28;20065;-50
2021/04/10 06:08:19;;;;;;;7.60;4.40;;;;;;;11.87;60.16;96155.59;5029139;28;20072;-52
2021/04/10 06:10:46;;;;;;;5.95;4.03;;;;;;;12.21;57.80;96145.91;5024950;28;20069;-50
2021/04/10 06:13:14;;;;;;;6.75;3.63;;;;;;;12.25;56.91;96153.38;5028701;28;20100;-54
2021/04/10 06:15:42;;;;;;;8.00;3.90;;;;;;;12.51;56.03;96155.88;5029594;28;20105;-52
2021/04/10 06:18:10;;;;;;;13.30;4.00;;;;;;;12.09;58.66;96148.88;5025923;28;20073;-49
2021/04/10 06:20:38;;;;;;;5.40;3.45;;;;;;;12.04;55.13;96153.84;5036259;28;20073;-49
2021/04/10 06:23:05;;;;;;;7.57;3.67;;;;;;;12.10;53.03;96157.63;5037969;28;20069;-48
2021/04/10 06:25:33;;;;;;;4.10;3.10;;;;;;;11.87;51.60;96154.75;5028489;28;20072;-49
2021/04/10 06:28:01;;;;;;;5.32;3.25;;;;;;;12.23;50.27;96162.44;5039060;28;20169;-47
2021/04/10 06:30:28;;;;;;;5.68;3.40;;;;;;;11.98;50.46;96162.41;5022322;28;20088;-50
2021/04/10 06:32:56;;;;;;;6.10;3.30;;;;;;;12.06;50.99;96159.75;5024379;28;20065;-50
2021/04/10 06:35:24;;;;;;;8.48;3.22;;;;;;;12.19;50.20;96161.13;5027835;28;20137;-49
2021/04/10 06:37:51;;;;;;;6.20;3.10;;;;;;;12.39;49.52;96161.63;5023882;28;20066;-51
2021/04/10 06:40:18;;;;;;;8.82;3.00;;;;;;;12.39;51.52;96173.06;5021785;28;20551;-52
2021/04/10 06:42:46;;;;;;;8.75;2.90;;;;;;;12.50;50.96;96171.94;5026782;28;20081;-49
2021/04/10 06:45:13;;;;;;;4.20;2.75;;;;;;;12.21;50.63;96173.19;5025924;28;20077;-51
2021/04/10 06:47:44;;;;;;;4.63;2.70;;;;;;;12.30;52.47;96161.63;5024971;28;20080;-53
2021/04/10 06:50:12;;;;;;;9.30;2.75;;;;;;;12.37;51.96;96169.75;5020683;28;20065;-48
2021/04/10 06:52:41;;;;;;;6.72;2.80;;;;;;;12.73;52.29;96164.16;5021238;28;20069;-49
2021/04/10 06:55:12;;;;;;;3.60;2.55;;;;;;;12.48;49.98;96165.97;5017714;28;20499;-55
2021/04/10 06:57:48;;;;;;;6.60;2.65;;;;;;;12.46;50.15;96165.31;5031453;28;20092;-52
2021/04/10 07:00:16;;;;;;;4.05;2.50;;;;;;;12.74;50.52;96163.19;5019415;28;21154;-53
2021/04/10 07:02:45;;;;;;;5.60;2.70;;;;;;;12.84;50.82;96163.84;5025209;28;20168;-53
2021/04/10 07:05:13;;;;;;;4.18;2.50;;;;;;;12.96;50.83;96159.84;5017908;28;20061;-50
2021/04/10 07:07:42;;;;;;;4.30;2.53;;;;;;;12.96;49.26;96165.13;5019225;28;20550;-50
2021/04/10 07:10:11;;;;;;;4.57;2.75;;;;;;;12.95;50.65;96163.50;5017890;28;20119;-50
2021/04/10 07:12:38;;;;;;;4.55;2.38;;;;;;;13.18;48.38;96165.44;5027388;28;20087;-49
2021/04/10 07:15:07;;;;;;;5.68;3.13;;;;;;;13.61;47.29;96163.41;5021791;28;20593;-54
2021/04/10 07:17:35;;;;;;;5.63;2.80;;;;;;;13.57;48.39;96162.09;5024896;28;20134;-54
2021/04/10 07:20:27;;;;;;;7.15;2.72;;;;;;;13.57;47.89;96162.91;5015273;28;20062;-49
2021/04/10 07:22:59;;;;;;;6.25;2.53;;;;;;;13.91;46.43;96170.56;5020472;28;20065;-50
2021/04/10 07:25:27;;;;;;;3.88;2.22;;;;;;;14.08;46.05;96170.50;5029819;28;20061;-46
2021/04/10 07:28:27;;;;;;;4.55;2.25;;;;;;;14.28;47.35;96174.38;5028797;28;20076;-51
2021/04/10 07:30:59;;;;;;;5.10;2.58;;;;;;;14.34;47.20;96171.00;5022045;28;20084;-49
2021/04/10 07:33:30;;;;;;;4.03;2.25;;;;;;;13.79;46.37;96158.69;5040771;28;20076;-49
2021/04/10 07:35:58;;;;;;;8.57;2.55;;;;;;;14.36;46.38;96170.84;5025486;28;20076;-52
2021/04/10 07:38:30;;;;;;;4.35;2.33;;;;;;;14.59;44.76;96162.91;5025356;28;20069;-51
2021/04/10 07:41:00;;;;;;;3.60;1.83;;;;;;;14.63;45.69;96182.81;5029719;28;20080;-54
2021/04/10 07:43:29;;;;;;;4.78;2.28;;;;;;;14.44;44.36;96184.88;5024742;28;20073;-52
2021/04/10 07:46:17;;;;;;;3.97;1.83;;;;;;;14.45;44.67;96188.34;5024770;28;20103;-51
2021/04/10 07:49:03;;;;;;;3.58;1.95;;;;;;;15.44;45.13;96179.44;5027590;28;20077;-52
2021/04/10 07:51:33;;;;;;;4.28;2.30;;;;;;;15.50;45.12;96188.53;5026934;28;20125;-52
2021/04/10 07:54:20;;;;;;;6.07;2.22;;;;;;;15.32;43.55;96185.38;5022720;28;20073;-50
2021/04/10 07:56:55;;;;;;;4.60;2.38;;;;;;;15.17;43.63;96180.03;5026380;28;20617;-52
2021/04/10 07:59:22;;;;;;;5.25;2.30;;;;;;;15.70;43.11;96182.72;5019117;28;20472;-54
2021/04/10 08:01:50;;;;;;;3.92;2.25;;;;;;;15.58;43.37;96190.25;5021096;28;20072;-51
2021/04/10 08:04:20;;;;;;;7.35;2.83;;;;;;;15.92;42.34;96186.25;5023115;28;20061;-52
2021/04/10 08:06:54;;;;;;;4.95;2.20;;;;;;;15.83;43.83;96191.69;5022989;28;20081;-54
2021/04/10 08:09:43;;;;;;;3.80;2.45;;;;;;;15.30;42.50;96198.00;5027763;28;20074;-50
2021/04/10 08:12:12;;;;;;;3.53;2.08;;;;;;;15.36;43.09;96195.47;5030431;28;20320;-52
2021/04/10 08:14:41;;;;;;;4.70;2.40;;;;;;;15.65;43.25;96192.00;5018426;28;20070;-55
2021/04/10 08:17:09;;;;;;;5.70;2.28;;;;;;;15.28;42.11;96192.91;5020029;28;20065;-51
2021/04/10 08:19:37;;;;;;;6.07;2.50;;;;;;;15.63;43.93;96186.06;5019491;28;20088;-54
2021/04/10 08:22:07;;;;;;;6.05;2.40;;;;;;;15.42;41.90;96202.72;5023625;28;20069;-52
2021/04/10 08:24:39;;;;;;;4.07;2.38;;;;;;;15.67;41.89;96197.19;5022017;28;20084;-56
2021/04/10 08:27:08;;;;;;;4.03;2.58;;;;;;;15.26;42.30;96200.22;5035231;28;20037;-50
2021/04/10 08:29:38;;;;;;;3.92;2.45;;;;;;;15.37;41.82;96206.91;5028438;28;20064;-52
2021/04/10 08:32:07;;;;;;;7.20;2.47;;;;;;;15.51;40.96;96206.09;5038213;28;20076;-55
2021/04/10 08:34:36;;;;;;;7.68;2.67;;;;;;;15.46;42.21;96213.00;5025536;28;20054;-57
2021/04/10 08:37:07;;;;;;;3.88;2.35;;;;;;;15.70;42.99;96212.78;5034580;28;20487;-56
2021/04/10 08:39:36;;;;;;;6.00;2.30;;;;;;;15.95;41.17;96209.84;5032100;28;20103;-54
2021/04/10 08:42:05;;;;;;;4.20;2.53;;;;;;;15.77;41.46;96204.88;5026693;28;20073;-52
2021/04/10 08:44:35;;;;;;;4.70;2.35;;;;;;;16.00;41.78;96204.78;5024046;28;20080;-51
2021/04/10 08:47:03;;;;;;;5.63;2.28;;;;;;;15.70;41.92;96223.41;5029933;28;20061;-56
2021/04/10 08:49:36;;;;;;;3.65;2.08;;;;;;;15.76;40.81;96216.50;5027468;28;20056;-51
2021/04/10 08:52:06;;;;;;;5.95;2.63;;;;;;;16.02;41.38;96219.53;5028955;28;20069;-50
2021/04/10 08:54:35;;;;;;;4.38;2.08;;;;;;;16.03;42.24;96205.22;5035192;28;20570;-51
2021/04/10 08:57:08;;;;;;;9.15;2.42;;;;;;;16.19;40.87;96220.16;5026551;28;20081;-52
2021/04/10 08:59:41;;;;;;;5.47;2.50;;;;;;;16.28;39.90;96210.25;5024375;28;20552;-50
2021/04/10 09:02:12;;;;;;;5.05;2.55;;;;;;;16.50;39.35;96214.59;5032559;28;20065;-52
2021/04/10 09:05:02;;;;;;;4.80;2.58;;;;;;;16.70;41.29;96200.69;5024630;28;20076;-49
2021/04/10 09:08:07;;;;;;;5.40;2.15;;;;;;;16.89;41.07;96210.72;5033039;28;20069;-56
2021/04/10 09:10:43;;;;;;;3.47;2.05;;;;;;;16.31;40.68;96202.72;5027846;28;20061;-53
2021/04/10 09:13:41;;;;;;;5.03;2.40;;;;;;;16.62;40.68;96214.97;5020864;28;20058;-57
2021/04/10 09:16:37;;;;;;;5.80;2.45;;;;;;;17.03;40.92;96206.34;5002436;28;20073;-50
2021/04/10 09:19:12;;;;;;;3.90;2.40;;;;;;;17.67;41.26;96218.78;5022588;28;22434;-54
2021/04/10 09:21:42;;;;;;;3.92;2.53;;;;;;;17.37;41.19;96212.78;5030736;28;20076;-53
2021/04/10 09:24:24;;;;;;;6.95;2.08;;;;;;;16.95;41.41;96211.81;5027971;28;20405;-49
2021/04/10 09:27:02;;;;;;;6.72;2.50;;;;;;;16.67;42.54;96212.53;5030808;28;20080;-53
2021/04/10 09:29:31;;;;;;;5.38;2.47;;;;;;;16.64;40.49;96218.22;5030866;28;20069;-49
2021/04/10 09:32:01;;;;;;;4.55;2.50;;;;;;;16.81;40.00;96213.53;5024850;28;20077;-54
2021/04/10 09:34:49;;;;;;;3.90;2.60;;;;;;;18.07;39.38;96211.88;5032265;28;20088;-55
2021/04/10 09:37:59;;;;;;;3.97;2.38;;;;;;;17.98;41.06;96216.53;5033287;28;20068;-51
2021/04/10 09:40:41;;;;;;;;;;;;;;;17.98;38.92;96215.69;5023360;28;20073;-55
2021/04/10 09:43:09;;;;;;;4.93;2.75;;;;;;;17.60;39.59;96218.72;5021202;28;19975;-53
2021/04/10 09:45:37;;;;;;;3.45;2.10;;;;;;;17.99;38.33;96209.34;5043424;28;20085;-53
2021/04/10 09:48:35;;;;;;;5.07;2.28;;;;;;;17.87;38.56;96214.41;5031886;28;20072;-52
2021/04/10 09:51:12;;;;;;;4.32;2.60;;;;;;;17.96;38.69;96220.41;5013251;28;20131;-51
2021/04/10 09:53:41;;;;;;;3.55;2.35;;;;;;;18.57;38.86;96216.97;5022494;28;20083;-50
2021/04/10 09:56:12;;;;;;;3.72;2.40;;;;;;;18.75;38.75;96217.25;5040304;28;20060;-52
2021/04/10 09:58:50;;;;;;;4.78;2.35;;;;;;;18.75;36.93;96214.59;5027716;28;20339;-54
2021/04/10 10:01:20;;;;;;;5.18;2.70;;;;;;;18.42;37.23;96220.63;5031625;28;20068;-57
2021/04/10 10:03:49;;;;;;;4.93;2.75;;;;;;;18.61;37.26;96213.69;5028383;28;20476;-56
2021/04/10 10:06:24;;;;;;;3.97;1.92;;;;;;;18.07;38.71;96203.84;5020632;28;20077;-49
2021/04/10 10:08:52;;;;;;;4.53;2.45;;;;;;;17.70;37.86;96194.38;5025815;28;20732;-56
2021/04/10 10:11:21;;;;;;;3.05;2.28;;;;;;;17.95;38.35;96200.09;5046192;28;20065;-54
2021/04/10 10:13:49;;;;;;;3.40;2.15;;;;;;;18.10;38.11;96203.47;5026352;28;20069;-52
2021/04/10 10:16:28;;;;;;;5.78;2.30;;;;;;;18.17;38.26;96204.31;5035235;28;20079;-52
2021/04/10 10:18:56;;;;;;;5.53;2.40;;;;;;;18.20;37.80;96197.75;5036725;28;20092;-57
2021/04/10 10:21:24;;;;;;;8.63;1.92;;;;;;;17.79;38.40;96194.06;5023480;28;20074;-51
2021/04/10 10:23:54;;;;;;;5.43;2.03;;;;;;;17.44;37.90;96193.16;5025485;28;20069;-52
2021/04/10 10:26:22;;;;;;;4.53;2.30;;;;;;;16.91;39.58;96192.72;5022715;28;20182;-52
2021/04/10 10:28:52;;;;;;;3.50;2.20;;;;;;;17.10;38.61;96199.25;5027311;28;20068;-55
2021/04/10 10:31:21;;;;;;;5.53;2.40;;;;;;;17.13;39.67;96196.19;5026507;28;20077;-52
2021/04/10 10:33:49;;;;;;;4.05;2.30;;;;;;;17.69;39.15;96188.22;5028124;28;20566;-52
2021/04/10 10:36:19;;;;;;;5.07;2.45;;;;;;;17.82;39.77;96190.16;5023644;28;20080;-53
2021/04/10 10:38:48;;;;;;;5.47;2.43;;;;;;;17.56;38.46;96188.94;5019116;28;20084;-54
2021/04/10 10:41:17;;;;;;;4.90;2.50;;;;;;;18.19;37.91;96183.56;5032670;28;20887;-55
2021/04/10 10:43:45;;;;;;;5.78;2.58;;;;;;;18.68;38.02;96174.47;5024871;28;20072;-53
2021/04/10 10:46:19;;;;;;;3.67;2.22;;;;;;;18.52;37.40;96182.06;5031971;28;20060;-55
2021/04/10 10:48:47;;;;;;;4.15;2.35;;;;;;;18.53;37.13;96179.19;5021860;28;20084;-57
2021/04/10 10:51:16;;;;;;;4.38;2.83;;;;;;;17.81;36.63;96182.38;5026101;28;20080;-57
2021/04/10 10:53:46;;;;;;;4.10;2.60;;;;;;;17.90;37.96;96175.84;5025980;28;20076;-54
2021/04/10 10:56:15;;;;;;;3.55;2.40;;;;;;;18.00;36.80;96170.97;5026649;28;20068;-56
2021/04/10 10:58:47;;;;;;;7.03;2.92;;;;;;;17.82;37.30;96166.16;5020354;28;20069;-54
2021/04/10 11:01:20;;;;;;;4.25;2.40;;;;;;;18.32;37.42;96163.31;5026320;28;20081;-54
2021/04/10 11:03:53;;;;;;;3.83;2.33;;;;;;;18.81;36.32;96165.69;5031085;28;20091;-57
2021/04/10 11:06:22;;;;;;;4.00;2.67;;;;;;;19.07;36.71;96162.25;5026425;28;20078;-56
2021/04/10 11:09:00;;;;;;;5.30;2.67;;;;;;;19.34;37.20;96160.41;5034175;28;20075;-57
2021/04/10 11:11:31;;;;;;;5.10;2.90;;;;;;;19.00;35.79;96153.41;5030850;28;20065;-54
2021/04/10 11:13:58;;;;;;;7.57;3.10;;;;;;;18.90;36.35;96147.66;5029895;28;20072;-58
2021/04/10 11:16:26;;;;;;;7.15;3.00;;;;;;;19.56;35.53;96139.56;5030000;28;20459;-54
2021/04/10 11:18:55;;;;;;;5.85;2.97;;;;;;;19.99;37.32;96132.91;5027300;28;20083;-57
2021/04/10 11:21:29;;;;;;;5.28;2.90;;;;;;;20.31;35.55;96131.94;5025020;28;20084;-56
2021/04/10 11:24:09;;;;;;;7.40;2.78;;;;;;;19.81;34.31;96126.38;5028092;28;20080;-54
2021/04/10 11:26:51;;;;;;;5.30;3.00;;;;;;;19.13;36.06;96136.53;5025297;28;20734;-53
2021/04/10 11:29:34;;;;;;;6.68;3.17;;;;;;;19.05;36.20;96142.09;5027535;28;20717;-52
2021/04/10 11:32:16;;;;;;;3.92;2.85;;;;;;;19.35;35.30;96132.63;5030774;28;20682;-57
2021/04/10 11:34:56;;;;;;;4.63;3.13;;;;;;;19.23;35.43;96123.56;5029356;28;20076;-54
2021/04/10 11:37:46;;;;;;;6.25;2.90;;;;;;;20.27;35.58;96117.34;5026252;28;20065;-52
2021/04/10 11:40:25;;;;;;;6.03;3.07;;;;;;;20.53;34.09;96118.25;5021547;28;20068;-53
2021/04/10 11:42:54;;;;;;;5.67;3.37;;;;;;;20.90;32.22;96110.38;5024965;28;20080;-55
2021/04/10 11:45:39;;;;;;;5.63;3.47;;;;;;;21.10;32.02;96111.88;5025026;28;20997;-52
2021/04/10 11:48:09;;;;;;;4.78;3.20;;;;;;;21.05;33.14;96109.00;5020403;28;21519;-53
2021/04/10 11:50:42;;;;;;;7.00;3.17;;;;;;;20.94;34.07;96112.41;5027218;28;20072;-53
2021/04/10 11:53:13;;;;;;;6.25;3.60;;;;;;;21.49;32.73;96101.00;5021463;28;20068;-55